Time;durP1;ratioP1;P1;durP2;ratioP2;P2;SDS_P1;SDS_P2;PMS_P1;PMS_P2;Temp;Humidity;BMP_temperature;BMP_pressure;BME280_temperature;BME280_humidity;BME280_pressure;Samples;Min_cycle;Max_cycle;Signal;HPM_P1;HPM_P2
2021/12/01 00:02:24;;;;;;;;;7.00;5.00;;;;;9.95;69.63;100939.78;5047269;28;45255;-70
2021/12/01 00:04:50;;;;;;;;;2.00;2.00;;;;;9.87;69.64;100917.72;5042659;28;45584;-72
2021/12/01 00:07:16;;;;;;;;;0.00;0.00;;;;;9.96;69.88;100925.88;5050105;28;45441;-74
2021/12/01 00:09:41;;;;;;;;;0.00;0.00;;;;;9.99;69.32;100917.28;5050445;28;45527;-70
2021/12/01 00:12:07;;;;;;;;;0.00;0.00;;;;;10.00;69.61;100913.84;5047487;28;45496;-71
2021/12/01 00:14:33;;;;;;;;;0.67;0.00;;;;;10.06;69.24;100901.00;5049122;28;45462;-71
2021/12/01 00:16:58;;;;;;;;;0.00;0.00;;;;;10.13;69.41;100908.25;5048187;28;45347;-72
2021/12/01 00:19:24;;;;;;;;;0.00;0.00;;;;;10.19;69.02;100891.06;5057865;28;45434;-73
2021/12/01 00:21:50;;;;;;;;;0.00;0.00;;;;;10.22;68.59;100896.38;5057336;28;45448;-70
2021/12/01 00:24:15;;;;;;;;;1.00;0.00;;;;;10.31;68.68;100897.63;5040708;28;45493;-71
2021/12/01 00:26:41;;;;;;;;;0.00;0.00;;;;;10.28;68.25;100875.72;5050110;28;45941;-72
2021/12/01 00:29:06;;;;;;;;;0.00;0.00;;;;;10.41;68.12;100888.41;5048186;28;45619;-74
2021/12/01 00:31:33;;;;;;;;;0.00;0.00;;;;;10.46;67.87;100871.16;5048061;28;45279;-73
2021/12/01 00:33:58;;;;;;;;;0.00;0.00;;;;;10.49;67.60;100862.56;5049417;28;45239;-72
2021/12/01 00:36:27;;;;;;;;;0.00;0.00;;;;;10.44;67.85;100846.72;5050938;28;45672;-70
2021/12/01 00:38:53;;;;;;;;;0.00;0.00;;;;;10.48;67.88;100839.88;5048872;28;45472;-71
2021/12/01 00:41:21;;;;;;;;;0.00;0.00;;;;;10.63;67.14;100865.69;5054573;28;45380;-71
2021/12/01 00:43:46;;;;;;;;;0.00;0.00;;;;;10.57;66.93;100852.41;5050185;28;45533;-71
2021/12/01 00:46:35;;;;;;;;;0.00;0.00;;;;;10.65;67.38;100857.03;5041767;28;45796;-71
2021/12/01 00:49:01;;;;;;;;;0.00;0.00;;;;;10.69;67.47;100845.88;5046174;28;45576;-71
2021/12/01 00:51:27;;;;;;;;;2.00;0.00;;;;;10.72;66.85;100837.22;5049460;28;45493;-71
2021/12/01 00:53:52;;;;;;;;;0.00;0.00;;;;;10.68;66.93;100835.34;5047405;28;45496;-70
2021/12/01 00:56:18;;;;;;;;;0.00;0.00;;;;;10.78;67.11;100841.78;5042508;28;46118;-70
2021/12/01 00:58:43;;;;;;;;;0.00;0.00;;;;;10.78;67.01;100837.44;5048469;28;45336;-70
2021/12/01 01:01:09;;;;;;;;;0.00;0.00;;;;;10.81;67.29;100837.56;5049938;28;45448;-70
2021/12/01 01:03:35;;;;;;;;;0.00;0.00;;;;;10.85;67.03;100834.19;5050351;28;45434;-70
2021/12/01 01:06:00;;;;;;;;;0.00;0.00;;;;;10.85;66.96;100818.53;5054935;28;46829;-69
2021/12/01 01:08:26;;;;;;;;;0.00;0.00;;;;;10.94;66.63;100839.75;5048828;28;45836;-70
2021/12/01 01:16:26;;;;;;;;;0.00;0.00;;;;;10.93;66.50;100801.34;5040490;28;45812;-72
2021/12/01 01:18:58;;;;;;;;;0.00;0.00;;;;;11.00;66.47;100807.69;5057088;28;45486;-70
2021/12/01 01:21:26;;;;;;;;;0.00;0.00;;;;;11.01;66.22;100804.22;5055820;28;45422;-70
2021/12/01 01:23:52;;;;;;;;;0.00;0.00;;;;;11.03;66.18;100797.31;5048647;28;45530;-70
2021/12/01 01:26:20;;;;;;;;;0.00;0.00;;;;;11.03;66.28;100786.00;5053946;28;45970;-70
2021/12/01 01:28:46;;;;;;;;;0.67;0.00;;;;;11.04;66.39;100778.19;5047116;28;45485;-70
2021/12/01 01:31:12;;;;;;;;;0.00;0.00;;;;;11.00;65.95;100764.97;5045804;28;45604;-70
2021/12/01 01:33:38;;;;;;;;;0.00;0.00;;;;;11.03;65.73;100768.56;5049303;28;45231;-70
2021/12/01 01:36:04;;;;;;;;;0.00;0.00;;;;;11.12;65.58;100773.19;5056369;28;46347;-70
2021/12/01 01:38:31;;;;;;;;;0.00;0.00;;;;;11.15;65.78;100776.78;5050505;28;45406;-70
2021/12/01 01:40:59;;;;;;;;;0.00;0.00;;;;;11.15;65.58;100771.56;5047264;28;45483;-70
2021/12/01 01:43:25;;;;;;;;;0.00;0.00;;;;;11.12;65.54;100760.09;5043076;28;45448;-70
2021/12/01 01:45:55;;;;;;;;;0.00;0.00;;;;;11.20;65.58;100770.81;5048785;28;46068;-70
2021/12/01 01:48:35;;;;;;;;;0.00;0.00;;;;;11.21;65.77;100755.19;5038102;28;45577;-70
2021/12/01 01:51:05;;;;;;;;;0.00;0.00;;;;;11.20;65.61;100753.41;5055926;28;45585;-70
2021/12/01 01:53:33;;;;;;;;;0.00;0.00;;;;;11.22;65.71;100756.97;5047559;28;45418;-71
2021/12/01 01:56:02;;;;;;;;;0.00;0.00;;;;;11.23;65.66;100750.00;5039985;28;45954;-72
2021/12/01 01:58:28;;;;;;;;;0.00;0.00;;;;;11.23;65.42;100750.00;5048855;28;45287;-72
2021/12/01 02:01:06;;;;;;;;;1.00;0.00;;;;;11.19;65.79;100735.06;5047286;28;45446;-71
2021/12/01 02:03:41;;;;;;;;;0.00;0.00;;;;;11.26;65.54;100739.63;5057733;28;45537;-73
2021/12/01 02:06:09;;;;;;;;;0.00;0.00;;;;;11.24;65.78;100742.22;5054338;28;45342;-72
2021/12/01 02:08:37;;;;;;;;;0.00;0.00;;;;;11.27;65.90;100744.91;5045303;28;45432;-70
2021/12/01 02:11:05;;;;;;;;;0.00;0.00;;;;;11.26;66.03;100742.22;5045798;28;45489;-72
2021/12/01 02:13:33;;;;;;;;;0.00;0.00;;;;;11.24;66.10;100739.59;5047468;28;45298;-72
2021/12/01 02:15:59;;;;;;;;;0.00;0.00;;;;;11.28;66.12;100743.16;5046419;28;46100;-71
2021/12/01 02:18:25;;;;;;;;;0.00;0.00;;;;;11.27;66.10;100744.91;5053805;28;45470;-72
2021/12/01 02:21:06;;;;;;;;;0.00;0.00;;;;;11.28;65.98;100744.06;5046615;28;45458;-70
2021/12/01 02:23:36;;;;;;;;;0.00;0.00;;;;;11.29;66.23;100739.72;5052506;28;45415;-71
2021/12/01 02:26:04;;;;;;;;;0.00;0.00;;;;;11.30;66.17;100742.38;5050235;28;45473;-70
2021/12/01 02:28:31;;;;;;;;;0.00;0.00;;;;;11.32;66.40;100731.94;5049180;28;45592;-70
2021/12/01 02:30:57;;;;;;;;;0.00;0.00;;;;;11.34;66.14;100736.41;5051616;28;45403;-73
2021/12/01 02:33:24;;;;;;;;;0.00;0.00;;;;;11.29;66.06;100724.91;5053377;28;45323;-72
2021/12/01 02:35:49;;;;;;;;;0.00;0.00;;;;;11.35;66.27;100726.81;5046818;28;45528;-70
2021/12/01 02:38:16;;;;;;;;;0.00;0.00;;;;;11.31;65.92;100712.75;5048004;28;46236;-70
2021/12/01 02:40:41;;;;;;;;;0.00;0.00;;;;;11.37;66.05;100716.41;5047494;28;45571;-70
2021/12/01 02:43:07;;;;;;;;;0.00;0.00;;;;;11.37;65.82;100708.56;5043820;28;45401;-71
2021/12/01 02:45:33;;;;;;;;;0.33;0.00;;;;;11.39;65.93;100702.53;5047633;28;45892;-70
2021/12/01 02:47:58;;;;;;;;;0.00;0.00;;;;;11.41;65.90;100694.75;5041645;28;45780;-70
2021/12/01 02:50:24;;;;;;;;;0.00;0.00;;;;;11.38;65.93;100677.22;5048351;28;45496;-70
2021/12/01 02:52:49;;;;;;;;;0.00;0.00;;;;;11.44;65.92;100684.34;5048455;28;45451;-71
2021/12/01 02:55:19;;;;;;;;;0.00;0.00;;;;;11.45;65.81;100671.31;5039096;28;45600;-70
2021/12/01 02:57:48;;;;;;;;;0.00;0.00;;;;;11.47;65.88;100676.59;5047898;28;45478;-71
2021/12/01 03:00:16;;;;;;;;;0.00;0.00;;;;;11.48;66.08;100666.19;5046468;28;45494;-70
2021/12/01 03:02:42;;;;;;;;;0.00;0.00;;;;;11.45;65.91;100653.00;5051311;28;45424;-71
2021/12/01 03:05:09;;;;;;;;;0.00;0.00;;;;;11.51;65.84;100653.19;5054206;28;45547;-72
2021/12/01 03:07:35;;;;;;;;;0.00;0.00;;;;;11.55;65.85;100656.75;5044562;28;45494;-71
2021/12/01 03:10:01;;;;;;;;;0.00;0.00;;;;;11.54;65.77;100639.31;5045952;28;45364;-70
2021/12/01 03:12:32;;;;;;;;;0.00;0.00;;;;;11.56;65.80;100635.00;5045921;28;45432;-72
2021/12/01 03:14:58;;;;;;;;;0.00;0.00;;;;;11.59;66.18;100635.06;5045292;28;46191;-70
2021/12/01 03:17:27;;;;;;;;;0.00;0.00;;;;;11.57;65.92;100628.91;5041821;28;45957;-70
2021/12/01 03:19:52;;;;;;;;;1.00;0.00;;;;;11.58;66.37;100622.84;5045537;28;45351;-70
2021/12/01 03:22:18;;;;;;;;;0.00;0.00;;;;;11.59;66.35;100623.72;5056353;28;45471;-70
2021/12/01 03:24:44;;;;;;;;;1.00;0.00;;;;;11.60;66.62;100620.25;5056322;28;46084;-71
2021/12/01 03:27:09;;;;;;;;;0.00;0.00;;;;;11.59;66.73;100619.38;5056926;28;45704;-69
2021/12/01 03:29:35;;;;;;;;;0.00;0.00;;;;;11.57;66.75;100612.34;5043436;28;45341;-70
2021/12/01 03:32:01;;;;;;;;;0.00;0.00;;;;;11.51;66.45;100594.75;5036487;28;45375;-71
2021/12/01 03:34:26;;;;;;;;;0.00;0.00;;;;;11.54;66.19;100597.44;5035707;28;45993;-72
2021/12/01 03:36:52;;;;;;;;;0.00;0.00;;;;;11.62;66.04;100603.78;5036288;28;45762;-72
2021/12/01 03:39:18;;;;;;;;;0.00;0.00;;;;;11.67;65.93;100602.16;5036576;28;45419;-72
2021/12/01 03:41:43;;;;;;;;;0.00;0.00;;;;;11.65;65.58;100595.09;5067285;28;45485;-72
2021/12/01 03:44:09;;;;;;;;;0.00;0.00;;;;;11.68;65.86;100596.09;5056461;28;46202;-70
2021/12/01 03:46:35;;;;;;;;;0.00;0.00;;;;;11.66;65.62;100594.28;5057409;28;45704;-72
2021/12/01 03:49:01;;;;;;;;;0.00;0.00;;;;;11.72;65.47;100608.41;5049925;28;45514;-72
2021/12/01 03:51:27;;;;;;;;;0.00;0.00;;;;;11.65;65.41;100595.09;5039989;28;45376;-71
2021/12/01 03:53:52;;;;;;;;;0.00;0.00;;;;;11.73;65.38;100598.81;5039197;28;45989;-73
2021/12/01 03:56:22;;;;;;;;;0.00;0.00;;;;;11.73;65.42;100602.31;5047421;28;45418;-70
2021/12/01 03:58:47;;;;;;;;;0.00;0.00;;;;;11.73;65.57;100597.06;5059912;28;45248;-71
2021/12/01 04:01:13;;;;;;;;;0.00;0.00;;;;;11.73;66.04;100593.56;5059359;28;45548;-71
2021/12/01 04:03:39;;;;;;;;;0.00;0.00;;;;;11.67;65.97;100575.97;5059707;28;45406;-71
2021/12/01 04:06:05;;;;;;;;;0.00;0.00;;;;;11.65;65.71;100569.81;5057751;28;45597;-71
2021/12/01 04:08:32;;;;;;;;;0.00;0.00;;;;;11.73;65.92;100581.38;5059658;28;45477;-71
2021/12/01 04:10:57;;;;;;;;;0.00;0.00;;;;;11.72;65.73;100577.00;5057605;28;45508;-74
2021/12/01 04:13:23;;;;;;;;;0.00;0.00;;;;;11.70;65.92;100575.19;5039306;28;45308;-70
2021/12/01 04:15:48;;;;;;;;;0.00;0.00;;;;;11.63;65.84;100555.81;5039032;28;45484;-70
2021/12/01 04:18:15;;;;;;;;;0.00;0.00;;;;;11.67;66.46;100580.34;5040113;28;45287;-70
2021/12/01 04:20:41;;;;;;;;;0.00;0.00;;;;;11.66;65.87;100570.72;5059559;28;45419;-72
2021/12/01 04:23:07;;;;;;;;;0.00;0.00;;;;;11.65;66.19;100571.56;5058680;28;45611;-70
2021/12/01 04:25:34;;;;;;;;;0.00;0.00;;;;;11.57;66.23;100553.03;5056686;28;45410;-72
2021/12/01 04:28:00;;;;;;;;;0.00;0.00;;;;;11.62;65.90;100571.47;5046533;28;45434;-71
2021/12/01 04:30:27;;;;;;;;;1.33;0.00;;;;;11.57;65.98;100560.88;5038550;28;45470;-74
2021/12/01 04:32:54;;;;;;;;;1.00;0.00;;;;;11.65;66.07;100580.28;5057795;28;47251;-73
2021/12/01 04:35:23;;;;;;;;;0.33;0.33;;;;;11.58;66.14;100573.13;5056885;28;45561;-72
2021/12/01 04:37:49;;;;;;;;;0.00;0.00;;;;;11.64;66.67;100578.53;5045886;28;45509;-71
2021/12/01 04:40:15;;;;;;;;;0.00;0.00;;;;;11.65;66.93;100574.19;5054471;28;45673;-70
2021/12/01 04:42:41;;;;;;;;;0.00;0.00;;;;;11.55;66.98;100557.34;5058871;28;45552;-72
2021/12/01 04:45:14;;;;;;;;;0.00;0.00;;;;;11.63;66.83;100568.91;5058777;28;45431;-71
2021/12/01 04:47:44;;;;;;;;;0.00;0.00;;;;;11.61;66.59;100570.59;5074777;28;45489;-70
2021/12/01 04:50:11;;;;;;;;;0.00;0.00;;;;;11.63;66.46;100557.56;5074743;28;45666;-71
2021/12/01 04:52:37;;;;;;;;;0.00;0.00;;;;;11.63;66.22;100557.56;5058376;28;45582;-70
2021/12/01 04:55:04;;;;;;;;;0.00;0.00;;;;;11.61;66.78;100551.41;5043115;28;45506;-70
2021/12/01 04:57:30;;;;;;;;;0.00;0.00;;;;;11.59;67.11;100556.59;5038168;28;45561;-70
2021/12/01 04:59:55;;;;;;;;;0.00;0.00;;;;;11.57;66.67;100545.19;5038275;28;45469;-70
2021/12/01 05:02:21;;;;;;;;;0.00;0.00;;;;;11.55;66.77;100546.88;5047763;28;46145;-70
2021/12/01 05:04:47;;;;;;;;;0.00;0.00;;;;;11.57;66.80;100550.41;5058794;28;45276;-71
2021/12/01 05:07:13;;;;;;;;;0.00;0.00;;;;;11.47;67.00;100537.94;5056533;28;45458;-70
2021/12/01 05:09:39;;;;;;;;;0.00;0.00;;;;;11.47;66.80;100532.72;5056578;28;45612;-70
2021/12/01 05:12:07;;;;;;;;;0.00;0.00;;;;;11.54;66.50;100537.28;5057273;28;45967;-69
2021/12/01 05:14:38;;;;;;;;;0.00;0.00;;;;;11.48;66.66;100519.69;5057382;28;45482;-71
2021/12/01 05:17:04;;;;;;;;;1.00;0.00;;;;;11.54;66.32;100521.59;5057247;28;45391;-70
2021/12/01 05:19:29;;;;;;;;;1.00;0.33;;;;;11.53;66.45;100520.66;5056511;28;46552;-71
2021/12/01 05:21:55;;;;;;;;;0.00;0.00;;;;;11.53;66.31;100522.41;5054804;28;46081;-72
2021/12/01 05:24:21;;;;;;;;;0.00;0.00;;;;;11.52;66.33;100518.03;5057002;28;45581;-70
2021/12/01 05:26:47;;;;;;;;;0.00;0.00;;;;;11.51;66.43;100513.63;5054572;28;47278;-73
2021/12/01 05:29:13;;;;;;;;;0.00;0.00;;;;;11.51;65.92;100508.41;5057584;28;46522;-73
2021/12/01 05:31:39;;;;;;;;;0.67;0.67;;;;;11.50;66.38;100502.31;5057091;28;46051;-71
2021/12/01 05:34:04;;;;;;;;;0.00;0.00;;;;;11.47;65.91;100488.25;5055987;28;45500;-75
2021/12/01 05:36:30;;;;;;;;;1.00;0.00;;;;;11.43;66.12;100484.66;5056553;28;45402;-72
2021/12/01 05:38:57;;;;;;;;;0.67;0.00;;;;;11.47;66.01;100481.28;5055900;28;45371;-71
2021/12/01 05:41:22;;;;;;;;;0.00;0.00;;;;;11.47;65.82;100476.03;5054773;28;45504;-71
2021/12/01 05:43:48;;;;;;;;;0.00;0.00;;;;;11.42;65.63;100461.06;5056481;28;45367;-73
2021/12/01 05:46:14;;;;;;;;;0.00;0.00;;;;;11.47;65.61;100470.81;5054456;28;45418;-71
2021/12/01 05:48:39;;;;;;;;;0.33;0.00;;;;;11.46;65.50;100462.94;5053029;28;45528;-71
2021/12/01 05:51:06;;;;;;;;;0.00;0.00;;;;;11.46;65.56;100468.16;5055092;28;45375;-70
2021/12/01 05:53:32;;;;;;;;;0.67;0.00;;;;;11.46;65.19;100460.31;5055681;28;45453;-70
2021/12/01 05:55:57;;;;;;;;;0.00;0.00;;;;;11.37;65.03;100439.19;5056354;28;45366;-70
2021/12/01 05:58:24;;;;;;;;;0.00;0.00;;;;;11.44;64.53;100454.16;5054158;28;45584;-72
2021/12/01 06:00:49;;;;;;;;;0.00;0.00;;;;;11.43;64.40;100453.28;5056155;28;45443;-71
2021/12/01 06:03:15;;;;;;;;;0.00;0.00;;;;;11.43;64.37;100453.28;5052724;28;45382;-75
2021/12/01 06:05:43;;;;;;;;;1.00;0.67;;;;;11.31;64.50;100434.66;5053724;28;45435;-69
2021/12/01 06:08:09;;;;;;;;;0.00;0.00;;;;;11.38;64.45;100440.94;5053203;28;45410;-70
2021/12/01 06:10:35;;;;;;;;;0.00;0.00;;;;;11.36;63.97;100430.47;5053619;28;45520;-73
2021/12/01 06:13:01;;;;;;;;;1.00;1.00;;;;;11.24;64.35;100411.81;5052298;28;45363;-70
2021/12/01 06:15:29;;;;;;;;;0.00;0.00;;;;;11.29;63.84;100425.91;5053909;28;45494;-71
2021/12/01 06:17:57;;;;;;;;;0.00;0.00;;;;;11.26;63.94;100418.88;5054128;28;45703;-70
2021/12/01 06:20:23;;;;;;;;;0.00;0.00;;;;;11.28;64.14;100416.28;5053731;28;45403;-72
2021/12/01 06:22:49;;;;;;;;;0.00;0.00;;;;;11.28;63.84;100409.34;5055061;28;45540;-74
2021/12/01 06:25:15;;;;;;;;;1.33;0.00;;;;;11.32;63.95;100398.09;5052796;28;45490;-71
2021/12/01 06:27:42;;;;;;;;;0.00;0.00;;;;;11.34;63.96;100411.22;5053209;28;45528;-75
2021/12/01 06:30:08;;;;;;;;;0.67;0.67;;;;;11.29;63.44;100394.53;5054364;28;45583;-72
2021/12/01 06:32:34;;;;;;;;;0.00;0.00;;;;;11.28;63.37;100387.50;5054242;28;45498;-71
2021/12/01 06:35:00;;;;;;;;;0.00;0.00;;;;;11.35;63.53;100402.50;5051120;28;45736;-72
2021/12/01 06:37:26;;;;;;;;;0.00;0.00;;;;;11.34;63.34;100395.53;5054841;28;45378;-71
2021/12/01 06:39:51;;;;;;;;;0.00;0.00;;;;;11.32;63.71;100397.19;5055235;28;45543;-72
2021/12/01 06:42:17;;;;;;;;;2.00;0.67;;;;;11.26;63.53;100387.50;5055730;28;45359;-70
2021/12/01 06:44:43;;;;;;;;;1.33;1.33;;;;;11.20;62.99;100381.22;5054218;28;45536;-72
2021/12/01 06:47:09;;;;;;;;;4.00;3.33;;;;;11.27;63.22;100388.38;5055586;28;45470;-74
2021/12/01 06:49:34;;;;;;;;;4.67;4.67;;;;;11.28;63.08;100385.81;5055498;28;45315;-74
2021/12/01 06:52:00;;;;;;;;;2.33;2.33;;;;;11.28;63.08;100379.66;5055272;28;45525;-69
2021/12/01 06:54:26;;;;;;;;;1.00;1.00;;;;;11.31;62.57;100378.00;5054256;28;45352;-69
2021/12/01 06:56:52;;;;;;;;;6.00;5.00;;;;;11.26;62.63;100366.56;5054317;28;45389;-71
2021/12/01 06:59:17;;;;;;;;;5.00;5.00;;;;;11.35;62.37;100379.84;5053853;28;46315;-70
2021/12/01 07:01:43;;;;;;;;;5.00;5.00;;;;;11.38;62.77;100376.44;5053888;28;45388;-69
2021/12/01 07:04:08;;;;;;;;;22.25;19.00;;;;;11.25;62.95;100353.47;5053838;28;45522;-74
2021/12/01 07:06:34;;;;;;;;;5.00;5.00;;;;;11.34;62.15;100369.38;5054318;28;46582;-69
2021/12/01 07:09:00;;;;;;;;;6.33;6.33;;;;;11.42;62.54;100373.06;5053920;28;45913;-73
2021/12/01 07:11:28;;;;;;;;;2.00;2.00;;;;;11.43;62.39;100361.72;5052168;28;45503;-73
2021/12/01 07:13:54;;;;;;;;;1.00;1.00;;;;;11.43;62.20;100353.88;5052290;28;45341;-70
2021/12/01 07:16:20;;;;;;;;;1.00;1.00;;;;;11.45;62.02;100357.41;5054587;28;45492;-72
2021/12/01 07:18:45;;;;;;;;;3.00;2.00;;;;;11.46;62.01;100353.97;5053721;28;46115;-72
2021/12/01 07:21:11;;;;;;;;;2.00;2.00;;;;;11.46;61.87;100347.84;5054046;28;45790;-73
2021/12/01 07:23:37;;;;;;;;;6.33;6.00;;;;;11.40;61.93;100330.28;5055175;28;45560;-70
2021/12/01 07:26:05;;;;;;;;;5.00;4.00;;;;;11.55;61.44;100353.28;5057250;28;45502;-71
2021/12/01 07:28:32;;;;;;;;;2.00;2.00;;;;;11.57;61.30;100343.75;5056726;28;45366;-72
2021/12/01 07:30:58;;;;;;;;;2.33;1.00;;;;;11.54;61.65;100335.84;5055022;28;45498;-73
2021/12/01 07:33:24;;;;;;;;;1.33;1.00;;;;;11.62;61.16;100344.75;5055289;28;45665;-69
2021/12/01 07:35:51;;;;;;;;;2.00;2.00;;;;;11.66;61.87;100348.31;5056871;28;45339;-73
2021/12/01 07:38:16;;;;;;;;;0.67;0.67;;;;;11.67;60.83;100345.72;5057251;28;45432;-74
2021/12/01 07:40:42;;;;;;;;;2.00;2.00;;;;;11.56;60.73;100328.91;5057495;28;45540;-68
2021/12/01 07:43:08;;;;;;;;;4.00;4.00;;;;;11.73;60.98;100344.97;5046875;28;45467;-71
2021/12/01 07:45:34;;;;;;;;;1.00;0.67;;;;;11.75;61.09;100352.00;5044240;28;45521;-70
2021/12/01 07:48:00;;;;;;;;;2.00;1.00;;;;;11.78;61.26;100350.28;5058378;28;46092;-71
2021/12/01 07:50:26;;;;;;;;;6.67;6.33;;;;;11.71;60.22;100333.59;5058415;28;45520;-70
2021/12/01 07:52:51;;;;;;;;;1.00;1.00;;;;;11.82;60.25;100346.91;5041670;28;45421;-71
2021/12/01 07:55:18;;;;;;;;;0.67;0.33;;;;;11.75;61.03;100317.97;5039047;28;45525;-69
2021/12/01 07:57:46;;;;;;;;;1.00;1.00;;;;;11.80;60.39;100332.88;5045411;28;45749;-71
2021/12/01 08:00:12;;;;;;;;;2.00;2.00;;;;;11.87;60.07;100340.03;5054463;28;45350;-69
2021/12/01 08:02:38;;;;;;;;;0.67;0.33;;;;;11.82;60.76;100318.13;5056245;28;45260;-69
2021/12/01 08:05:05;;;;;;;;;2.00;1.00;;;;;11.90;60.47;100327.94;5058106;28;45495;-69
2021/12/01 08:07:34;;;;;;;;;1.00;1.00;;;;;11.89;60.35;100323.53;5058427;28;45766;-69
2021/12/01 08:10:00;;;;;;;;;3.00;3.00;;;;;11.91;60.28;100329.69;5044527;28;45381;-71
2021/12/01 08:12:26;;;;;;;;;2.00;2.00;;;;;11.88;59.68;100320.88;5038575;28;45497;-69
2021/12/01 08:14:51;;;;;;;;;4.00;3.00;;;;;11.90;59.61;100324.44;5055501;28;45363;-70
2021/12/01 08:17:17;;;;;;;;;4.67;4.00;;;;;11.90;59.68;100313.97;5054484;28;46037;-71
2021/12/01 08:19:42;;;;;;;;;6.67;5.67;;;;;11.92;59.37;100318.38;5050078;28;45497;-73
2021/12/01 08:22:09;;;;;;;;;12.25;11.25;;;;;11.95;59.47;100296.59;5046131;28;45421;-71
2021/12/01 08:24:35;;;;;;;;;5.33;4.67;;;;;11.88;59.17;100292.97;5055135;28;45866;-70
2021/12/01 08:27:01;;;;;;;;;8.00;8.00;;;;;11.99;59.39;100298.44;5058550;28;45616;-72
2021/12/01 08:29:26;;;;;;;;;3.33;3.33;;;;;11.98;58.84;100301.91;5050937;28;45350;-69
2021/12/01 08:31:52;;;;;;;;;1.67;1.67;;;;;12.00;58.60;100292.34;5038376;28;45504;-69
2021/12/01 08:34:17;;;;;;;;;4.00;3.00;;;;;12.08;58.82;100297.75;5037717;28;45502;-70
2021/12/01 08:36:45;;;;;;;;;3.67;3.00;;;;;12.09;58.70;100305.59;5058122;28;45262;-71
2021/12/01 08:39:11;;;;;;;;;7.00;6.00;;;;;12.10;58.65;100296.91;5058673;28;45532;-71
2021/12/01 08:41:37;;;;;;;;;4.00;4.00;;;;;12.14;58.89;100293.50;5045615;28;45525;-70
2021/12/01 08:44:03;;;;;;;;;8.33;7.00;;;;;12.13;58.44;100293.47;5054183;28;45507;-69
2021/12/01 08:46:29;;;;;;;;;5.33;4.33;;;;;12.24;58.66;100293.69;5058302;28;45903;-71
2021/12/01 08:48:56;;;;;;;;;7.33;7.33;;;;;12.28;58.49;100291.16;5049847;28;45500;-72
2021/12/01 08:51:22;;;;;;;;;8.00;7.33;;;;;12.28;58.61;100285.03;5038938;28;45641;-69
2021/12/01 08:53:47;;;;;;;;;0.00;0.00;;;;;12.25;59.08;100284.97;5039127;28;45281;-71
2021/12/01 08:56:14;;;;;;;;;15.67;14.33;;;;;12.24;59.06;100275.38;5049613;28;45411;-72
2021/12/01 08:58:40;;;;;;;;;16.67;14.00;;;;;12.26;58.99;100286.75;5049240;28;45280;-71
2021/12/01 09:01:05;;;;;;;;;13.67;11.67;;;;;12.25;59.11;100287.59;5050445;28;45565;-70
2021/12/01 09:03:31;;;;;;;;;12.33;10.67;;;;;12.22;59.47;100279.69;5057043;28;45724;-72
2021/12/01 09:05:57;;;;;;;;;15.00;10.67;;;;;12.18;59.51;100280.50;5053576;28;46206;-69
2021/12/01 09:08:24;;;;;;;;;10.67;8.00;;;;;12.13;60.25;100286.50;5047408;28;45491;-69
2021/12/01 09:10:54;;;;;;;;;8.33;6.33;;;;;12.11;60.63;100288.19;5058347;28;45599;-71
2021/12/01 09:13:23;;;;;;;;;10.33;9.00;;;;;12.03;61.03;100254.88;5048732;28;45495;-68
2021/12/01 09:15:49;;;;;;;;;4.67;4.00;;;;;12.09;61.08;100265.47;5037532;28;46132;-71
2021/12/01 09:18:16;;;;;;;;;5.00;5.00;;;;;12.10;61.25;100260.25;5046260;28;45425;-73
2021/12/01 09:20:42;;;;;;;;;11.67;8.67;;;;;12.15;60.58;100262.97;5057059;28;45801;-69
2021/12/01 09:23:07;;;;;;;;;7.00;6.00;;;;;12.25;60.51;100264.00;5056980;28;45488;-70
2021/12/01 09:25:33;;;;;;;;;14.75;14.00;;;;;12.34;59.94;100256.34;5038354;28;45240;-71
2021/12/01 09:27:59;;;;;;;;;8.33;6.67;;;;;12.34;60.04;100248.47;5046288;28;45539;-69
2021/12/01 09:30:25;;;;;;;;;8.33;7.00;;;;;12.53;60.13;100257.53;5057771;28;45461;-70
2021/12/01 09:32:51;;;;;;;;;8.67;7.67;;;;;12.61;59.64;100261.16;5056633;28;45505;-73
2021/12/01 09:35:17;;;;;;;;;5.67;4.67;;;;;12.77;59.32;100254.44;5037315;28;45978;-72
2021/12/01 09:37:42;;;;;;;;;9.00;8.00;;;;;12.88;58.48;100252.88;5045769;28;45383;-69
2021/12/01 09:40:13;;;;;;;;;3.00;3.00;;;;;12.91;58.81;100250.31;5044975;28;45767;-70
2021/12/01 09:42:46;;;;;;;;;6.00;5.67;;;;;12.82;59.14;100247.53;5037541;28;45574;-69
2021/12/01 09:45:12;;;;;;;;;6.33;5.33;;;;;12.74;59.27;100238.69;5037043;28;46165;-70
2021/12/01 09:47:38;;;;;;;;;7.67;7.67;;;;;12.83;58.93;100243.19;5046936;28;45588;-74
2021/12/01 09:50:05;;;;;;;;;5.00;5.00;;;;;12.86;59.12;100245.84;5057439;28;45287;-70
2021/12/01 09:52:31;;;;;;;;;4.33;4.33;;;;;12.87;59.35;100238.03;5055571;28;45458;-68
2021/12/01 09:54:57;;;;;;;;;7.67;6.33;;;;;12.81;59.23;100222.19;5037465;28;45424;-74
2021/12/01 09:57:22;;;;;;;;;2.00;2.00;;;;;12.93;58.88;100234.59;5037411;28;45362;-74
2021/12/01 09:59:48;;;;;;;;;2.33;2.33;;;;;12.96;59.38;100231.16;5050606;28;45410;-74
2021/12/01 10:02:14;;;;;;;;;2.00;2.00;;;;;12.91;59.39;100218.84;5055827;28;45422;-74
2021/12/01 10:04:40;;;;;;;;;4.00;2.00;;;;;12.95;59.69;100235.50;5045574;28;45547;-71
2021/12/01 10:07:19;;;;;;;;;1.00;1.00;;;;;12.93;59.41;100234.59;5047730;28;45430;-70
2021/12/01 10:09:48;;;;;;;;;2.00;2.00;;;;;12.83;60.33;100219.59;5037038;28;45335;-68
2021/12/01 10:12:15;;;;;;;;;2.00;2.00;;;;;12.89;61.79;100238.94;5052602;28;45398;-69
2021/12/01 10:14:48;;;;;;;;;1.67;1.33;;;;;12.91;61.56;100225.81;5043457;28;46162;-75
2021/12/01 10:17:17;;;;;;;;;3.67;3.00;;;;;12.96;61.79;100225.91;5044364;28;45518;-75
2021/12/01 10:19:43;;;;;;;;;2.67;2.00;;;;;12.99;62.01;100226.84;5041880;28;45525;-74
2021/12/01 10:22:10;;;;;;;;;4.00;2.00;;;;;13.11;61.85;100234.88;5051739;28;45229;-75
2021/12/01 10:24:39;;;;;;;;;2.00;2.00;;;;;13.12;62.16;100236.63;5053217;28;46196;-75
2021/12/01 10:27:10;;;;;;;;;2.67;2.00;;;;;13.14;61.79;100236.66;5036838;28;45562;-74
2021/12/01 10:29:52;;;;;;;;;1.00;1.00;;;;;13.07;61.82;100217.34;5036796;28;45352;-75
2021/12/01 10:32:19;;;;;;;;;1.00;1.00;;;;;13.13;62.72;100237.53;5054048;28;45469;-71
2021/12/01 10:34:58;;;;;;;;;1.00;1.00;;;;;13.12;63.10;100235.75;5050009;28;45370;-69
2021/12/01 10:37:26;;;;;;;;;1.33;1.00;;;;;13.13;62.88;100219.19;5063683;28;45516;-68
2021/12/01 10:40:21;;;;;;;;;2.00;1.33;;;;;13.12;63.43;100244.50;5054392;28;45557;-71
2021/12/01 10:43:01;;;;;;;;;4.00;3.00;;;;;13.13;64.31;100242.78;5023661;28;45435;-69
2021/12/01 10:45:39;;;;;;;;;7.00;6.00;;;;;13.16;63.77;100244.56;5049800;28;46210;-75
2021/12/01 10:48:07;;;;;;;;;2.00;1.00;;;;;13.13;64.27;100248.03;5051453;28;45558;-75
2021/12/01 10:50:35;;;;;;;;;3.00;3.00;;;;;13.10;64.55;100263.72;5036768;28;45426;-71
2021/12/01 10:53:19;;;;;;;;;2.00;2.00;;;;;13.01;65.09;100259.22;5040157;28;45378;-69
2021/12/01 10:56:05;;;;;;;;;2.00;2.00;;;;;12.94;65.12;100271.31;5053955;28;45641;-70
2021/12/01 10:58:39;;;;;;;;;2.00;2.00;;;;;12.98;65.87;100274.88;5039756;28;45490;-71
2021/12/01 11:01:19;;;;;;;;;1.00;1.00;;;;;12.96;65.87;100291.47;5042156;28;45505;-73
2021/12/01 11:03:45;;;;;;;;;1.00;0.67;;;;;12.91;66.53;100304.47;5044381;28;45436;-71
2021/12/01 11:06:20;;;;;;;;;1.00;0.00;;;;;12.82;67.12;100312.19;5035678;28;45356;-73
2021/12/01 11:08:58;;;;;;;;;1.00;1.00;;;;;12.74;67.07;100331.28;5036186;28;45398;-72
2021/12/01 11:11:34;;;;;;;;;0.00;0.00;;;;;12.67;67.39;100358.25;5045930;28;45751;-70
2021/12/01 11:14:09;;;;;;;;;2.00;2.00;;;;;12.51;69.66;100361.44;5056431;28;45419;-71
2021/12/01 11:16:39;;;;;;;;;1.00;1.00;;;;;12.36;69.67;100369.88;5055872;28;45949;-69
2021/12/01 11:19:05;;;;;;;;;1.00;1.00;;;;;12.32;70.99;100362.81;5050329;28;45370;-70
2021/12/01 11:21:31;;;;;;;;;0.33;0.33;;;;;12.26;70.06;100366.19;5036406;28;45454;-69
2021/12/01 11:24:04;;;;;;;;;1.00;0.00;;;;;12.19;71.20;100382.63;5052575;28;45570;-71
2021/12/01 11:26:32;;;;;;;;;0.00;0.00;;;;;12.13;71.54;100378.13;5049812;28;46187;-69
2021/12/01 11:29:04;;;;;;;;;1.00;1.00;;;;;12.08;71.95;100376.31;5044709;28;45676;-69
2021/12/01 11:31:44;;;;;;;;;0.67;0.00;;;;;12.09;71.34;100378.94;5040781;28;45402;-71